createdAt,value
2019-05-09T00:04:23.147Z,8.31
2019-05-09T00:09:28.091Z,6.87
2019-05-09T00:14:34.223Z,8.35
2019-05-09T00:19:39.217Z,7.92
2019-05-09T00:24:45.504Z,8.33
2019-05-09T00:29:53.193Z,8.24
2019-05-09T00:35:13.951Z,8.33
2019-05-09T00:40:18.145Z,7.13
2019-05-09T00:45:37.951Z,7.01
2019-05-09T00:50:43.734Z,7.58
2019-05-09T00:55:48.562Z,8.16
2019-05-09T01:00:53.393Z,7.71
2019-05-09T01:05:58.148Z,7.11
2019-05-09T01:11:11.322Z,7.87
2019-05-09T01:16:09.070Z,7.51
2019-05-09T01:21:13.636Z,7.29
2019-05-09T01:26:18.242Z,6.68
2019-05-09T01:31:23.998Z,6.58
2019-05-09T01:36:48.125Z,6.38
2019-05-09T01:41:53.213Z,7.24
2019-05-09T01:46:58.109Z,7.32
2019-05-09T01:52:03.441Z,7.83
2019-05-09T01:57:08.514Z,8.30
2019-05-09T02:02:14.267Z,8.12
2019-05-09T02:07:19.126Z,7.61
2019-05-09T02:12:24.586Z,7.72
2019-05-09T02:17:34.040Z,7.40
2019-05-09T02:22:38.781Z,7.16
2019-05-09T02:27:43.670Z,7.01
2019-05-09T02:32:48.467Z,7.32
2019-05-09T02:37:53.221Z,6.87
2019-05-09T02:42:59.063Z,7.30
2019-05-09T02:48:04.237Z,7.24
2019-05-09T02:53:08.983Z,7.25
2019-05-09T02:58:15.153Z,7.58
2019-05-09T03:03:21.343Z,6.89
2019-05-09T03:08:29.354Z,7.64
2019-05-09T03:13:32.075Z,7.38
2019-05-09T03:18:38.863Z,7.78
2019-05-09T03:23:43.070Z,6.43
2019-05-09T03:29:08.873Z,7.28
2019-05-09T03:34:13.549Z,7.00
2019-05-09T03:39:18.664Z,7.98
2019-05-09T03:44:23.339Z,7.03
2019-05-09T03:49:28.450Z,8.28
2019-05-09T03:54:33.341Z,8.30
2019-05-09T03:59:38.225Z,8.46
2019-05-09T04:04:43.240Z,8.49
2019-05-09T04:09:48.107Z,8.41
2019-05-09T04:14:52.923Z,9.04
2019-05-09T04:19:57.868Z,9.50
2019-05-09T04:25:02.716Z,9.46
2019-05-09T04:30:09.462Z,10.11
2019-05-09T04:35:13.728Z,10.01
2019-05-09T04:40:18.367Z,10.45
2019-05-09T04:45:33.124Z,10.68
2019-05-09T04:50:37.657Z,10.76
2019-05-09T04:55:42.658Z,10.91
2019-05-09T05:01:07.300Z,10.60
2019-05-09T05:06:12.206Z,9.90
2019-05-09T05:11:18.313Z,10.43
2019-05-09T05:16:23.199Z,10.56
2019-05-09T05:21:28.441Z,10.78
2019-05-09T05:26:33.426Z,10.67
2019-05-09T05:31:38.765Z,11.13
2019-05-09T05:36:43.741Z,11.64
2019-05-09T05:41:48.577Z,11.02
2019-05-09T05:47:00.922Z,12.90
2019-05-09T05:52:07.812Z,13.65
2019-05-09T05:57:11.819Z,13.24
2019-05-09T06:02:17.777Z,12.73
2019-05-09T06:07:24.072Z,14.02
2019-05-09T06:12:28.808Z,15.19
2019-05-09T06:17:33.559Z,15.91
2019-05-09T06:22:38.325Z,15.06
2019-05-09T06:27:43.143Z,15.96
2019-05-09T06:32:48.859Z,15.91
2019-05-09T06:37:53.654Z,15.98
2019-05-09T06:42:59.304Z,16.16
2019-05-09T06:48:04.586Z,16.51
2019-05-09T06:53:09.319Z,16.69
2019-05-09T06:58:33.723Z,16.42
2019-05-09T07:03:49.010Z,16.81
2019-05-09T07:08:55.293Z,17.02
2019-05-09T07:14:00.040Z,17.13
2019-05-09T07:19:08.004Z,17.24
2019-05-09T07:24:13.009Z,17.29
2019-05-09T07:29:17.936Z,17.65
2019-05-09T07:34:27.777Z,17.97
2019-05-09T07:39:32.455Z,17.82
2019-05-09T07:44:48.040Z,17.97
2019-05-09T07:49:43.893Z,18.24
2019-05-09T07:54:50.379Z,17.39
2019-05-09T07:59:55.223Z,18.28
2019-05-09T08:05:00.392Z,18.30
2019-05-09T08:10:09.114Z,19.06
2019-05-09T08:15:16.392Z,18.43
2019-05-09T08:20:20.653Z,19.31
2019-05-09T08:25:27.706Z,19.33
2019-05-09T08:30:35.754Z,19.94
2019-05-09T08:35:38.512Z,19.90
2019-05-09T08:40:43.211Z,20.56
2019-05-09T08:45:48.468Z,20.07
2019-05-09T08:50:55.203Z,21.14
2019-05-09T08:56:02.971Z,21.51
2019-05-09T09:01:09.763Z,21.39
2019-05-09T09:06:14.500Z,21.88
2019-05-09T09:11:19.353Z,21.34
2019-05-09T09:16:24.347Z,20.71
2019-05-09T09:21:29.139Z,21.07
2019-05-09T09:26:33.889Z,21.10
2019-05-09T09:31:38.977Z,21.34
2019-05-09T09:36:43.686Z,21.33
2019-05-09T09:41:49.527Z,21.72
2019-05-09T09:46:54.399Z,21.71
2019-05-09T09:51:59.245Z,21.85
2019-05-09T09:57:03.989Z,21.71
2019-05-09T10:02:10.509Z,21.42
2019-05-09T10:07:21.961Z,21.49
2019-05-09T10:12:29.306Z,21.64
2019-05-09T10:17:35.676Z,22.13
2019-05-09T10:22:46.466Z,21.67
2019-05-09T10:27:48.016Z,21.98
2019-05-09T10:32:52.762Z,22.16
2019-05-09T10:37:58.846Z,22.01
2019-05-09T10:43:11.562Z,21.27
2019-05-09T10:48:23.057Z,22.11
2019-05-09T10:53:22.831Z,22.35
2019-05-09T10:58:28.171Z,20.23
2019-05-09T11:03:33.113Z,21.42
2019-05-09T11:08:38.215Z,21.38
2019-05-09T11:13:43.215Z,21.70
2019-05-09T11:18:48.521Z,21.71
2019-05-09T11:23:53.313Z,22.19
2019-05-09T11:31:07.372Z,22.41
2019-05-09T11:34:04.715Z,21.84
2019-05-09T11:39:11.121Z,22.03
2019-05-09T11:44:18.295Z,21.47
2019-05-09T11:49:23.225Z,21.12
2019-05-09T11:54:28.231Z,21.73
2019-05-09T11:59:33.921Z,21.71
2019-05-09T12:04:39.055Z,22.00
2019-05-09T12:09:44.402Z,21.59
2019-05-09T12:14:49.514Z,21.86
2019-05-09T12:20:08.983Z,22.11
2019-05-09T12:25:02.613Z,22.38
2019-05-09T12:30:11.316Z,22.38
2019-05-09T12:35:18.899Z,22.08
2019-05-09T12:40:22.589Z,22.23
2019-05-09T12:45:27.434Z,21.50
2019-05-09T12:50:32.072Z,21.67
2019-05-09T12:55:38.766Z,22.17
2019-05-09T13:00:43.719Z,22.04
2019-05-09T13:05:48.558Z,22.04
2019-05-09T13:10:53.305Z,21.54
2019-05-09T13:16:05.231Z,21.41
2019-05-09T13:21:10.070Z,20.42
2019-05-09T13:26:14.900Z,20.83
2019-05-09T13:31:19.753Z,21.12
2019-05-09T13:36:24.501Z,20.89
2019-05-09T13:41:29.240Z,20.73
2019-05-09T13:46:34.196Z,20.60
2019-05-09T13:51:48.769Z,20.44
2019-05-09T13:56:50.379Z,19.97
2019-05-09T14:01:52.653Z,19.46
2019-05-09T14:06:57.572Z,19.28
2019-05-09T14:12:02.413Z,17.84
2019-05-09T14:17:08.510Z,18.69
2019-05-09T14:22:13.537Z,18.74
2019-05-09T14:27:19.404Z,19.04
2019-05-09T14:32:26.566Z,19.15
2019-05-09T14:37:31.966Z,19.06
2019-05-09T14:42:39.061Z,18.61
2019-05-09T14:47:45.115Z,18.57
2019-05-09T14:52:52.477Z,18.43
2019-05-09T14:57:57.824Z,18.23
2019-05-09T15:03:02.873Z,17.67
2019-05-09T15:08:07.598Z,17.30
2019-05-09T15:13:12.958Z,16.90
2019-05-09T15:18:17.878Z,17.92
2019-05-09T15:23:22.991Z,17.87
2019-05-09T15:28:31.302Z,17.51
2019-05-09T15:33:38.326Z,16.72
2019-05-09T15:38:49.532Z,16.86
2019-05-09T15:44:01.805Z,17.25
2019-05-09T15:49:14.522Z,16.25
2019-05-09T15:54:29.381Z,16.50
2019-05-09T15:59:42.216Z,17.37
2019-05-09T16:04:51.704Z,17.39
2019-05-09T16:09:58.150Z,17.09
2019-05-09T16:15:07.643Z,16.80
2019-05-09T16:20:14.192Z,17.39
2019-05-09T16:25:21.665Z,17.29
2019-05-09T16:30:28.191Z,16.52
2019-05-09T16:35:37.948Z,16.35
2019-05-09T16:40:42.104Z,16.63
2019-05-09T16:45:47.945Z,17.21
2019-05-09T16:51:00.425Z,17.12
2019-05-09T16:56:00.431Z,17.15
2019-05-09T17:01:05.186Z,17.43
2019-05-09T17:06:10.633Z,17.38
2019-05-09T17:11:18.970Z,17.06
2019-05-09T17:16:21.859Z,17.32
2019-05-09T17:21:28.314Z,16.61
2019-05-09T17:26:33.086Z,16.37
2019-05-09T17:31:38.455Z,16.68
2019-05-09T17:36:43.292Z,17.01
2019-05-09T17:41:48.033Z,16.96
2019-05-09T17:46:52.984Z,16.64
2019-05-09T17:51:58.452Z,16.42
2019-05-09T17:57:03.593Z,16.68
2019-05-09T18:02:08.781Z,16.58
2019-05-09T18:07:13.714Z,16.56
2019-05-09T18:12:18.945Z,16.84
2019-05-09T18:17:25.027Z,16.63
2019-05-09T18:22:30.387Z,15.62
2019-05-09T18:27:35.233Z,15.28
2019-05-09T18:32:48.880Z,15.13
2019-05-09T18:37:53.507Z,15.01
2019-05-09T18:42:58.472Z,15.98
2019-05-09T18:48:03.494Z,15.70
2019-05-09T18:53:08.271Z,16.04
2019-05-09T18:58:13.012Z,14.74
2019-05-09T19:03:19.294Z,15.39
2019-05-09T19:08:24.263Z,14.58
2019-05-09T19:13:29.482Z,15.47
2019-05-09T19:18:52.059Z,14.78
2019-05-09T19:23:56.916Z,14.89
2019-05-09T19:29:01.547Z,15.68
2019-05-09T19:34:07.074Z,15.71
2019-05-09T19:39:11.864Z,14.95
2019-05-09T19:44:16.587Z,15.74
2019-05-09T19:49:21.232Z,15.92
2019-05-09T19:54:25.977Z,14.87
2019-05-09T19:59:30.824Z,14.83
2019-05-09T20:04:35.678Z,15.33
2019-05-09T20:09:43.998Z,15.70
2019-05-09T20:14:50.646Z,15.77
2019-05-09T20:19:55.342Z,15.99
2019-05-09T20:25:00.195Z,16.02
2019-05-09T20:30:07.403Z,16.03
2019-05-09T20:35:12.129Z,15.41
2019-05-09T20:40:17.163Z,15.59
2019-05-09T20:45:22.218Z,15.45
2019-05-09T20:50:27.069Z,15.75
2019-05-09T20:55:32.016Z,15.20
2019-05-09T21:00:36.981Z,15.09
2019-05-09T21:05:41.908Z,14.48
2019-05-09T21:10:46.957Z,13.45
2019-05-09T21:15:51.906Z,13.86
2019-05-09T21:20:57.980Z,13.75
2019-05-09T21:26:03.085Z,13.50
2019-05-09T21:31:07.975Z,13.41
2019-05-09T21:36:12.721Z,14.23
2019-05-09T21:41:17.292Z,14.40
2019-05-09T21:46:22.107Z,14.56
2019-05-09T21:51:26.805Z,14.99
2019-05-09T21:56:31.591Z,14.38
2019-05-09T22:01:36.180Z,14.68
2019-05-09T22:06:41.719Z,14.96
2019-05-09T22:11:46.643Z,14.78
2019-05-09T22:16:51.384Z,14.28
2019-05-09T22:21:56.033Z,14.61
2019-05-09T22:27:01.898Z,14.97
2019-05-09T22:32:06.638Z,14.16
2019-05-09T22:37:12.917Z,14.12
2019-05-09T22:42:17.553Z,14.47
2019-05-09T22:47:22.200Z,14.96
2019-05-09T22:52:26.942Z,14.82
2019-05-09T22:57:31.584Z,14.92
2019-05-09T23:02:36.327Z,14.80
2019-05-09T23:07:41.070Z,14.85
2019-05-09T23:12:45.813Z,14.38
2019-05-09T23:17:51.582Z,13.75
2019-05-09T23:22:56.630Z,14.18
2019-05-09T23:28:01.379Z,14.05
2019-05-09T23:33:06.128Z,13.90
2019-05-09T23:38:10.754Z,14.32
2019-05-09T23:43:15.505Z,13.09
2019-05-09T23:48:20.269Z,13.47
2019-05-09T23:53:32.253Z,13.99
2019-05-09T23:58:55.128Z,13.77
